Time;durP1;ratioP1;P1;durP2;ratioP2;P2;SDS_P1;SDS_P2;PMS_P1;PMS_P2;Temp;Humidity;BMP_temperature;BMP_pressure;BME280_temperature;BME280_humidity;BME280_pressure;Samples;Min_cycle;Max_cycle;Signal;HPM_P1;HPM_P2
2021/08/09 00:02:02;;;;;;;2.83;1.20;;;;;;;10.28;100.00;95341.28;5093815;28;20055;-58
2021/08/09 00:04:28;;;;;;;3.05;1.40;;;;;;;10.21;100.00;95336.13;5106012;28;20485;-58
2021/08/09 00:06:54;;;;;;;2.85;1.63;;;;;;;10.16;100.00;95334.19;5074418;28;20028;-57
2021/08/09 00:09:19;;;;;;;4.47;1.23;;;;;;;10.08;100.00;95329.31;5073438;28;20024;-56
2021/08/09 00:11:45;;;;;;;3.40;1.30;;;;;;;10.06;100.00;95319.94;5078279;28;20028;-56
2021/08/09 00:14:13;;;;;;;2.15;1.27;;;;;;;10.01;100.00;95322.59;5093513;28;20024;-56
2021/08/09 00:16:41;;;;;;;2.67;1.23;;;;;;;10.03;100.00;95325.81;5093555;28;20051;-59
2021/08/09 00:19:06;;;;;;;3.50;1.27;;;;;;;10.02;100.00;95321.50;5098849;28;20057;-58
2021/08/09 00:21:35;;;;;;;4.28;1.20;;;;;;;9.97;100.00;95322.25;5094985;28;20048;-54
2021/08/09 00:24:03;;;;;;;5.70;1.20;;;;;;;9.99;100.00;95316.69;5113769;28;20027;-57
2021/08/09 00:26:30;;;;;;;2.70;1.40;;;;;;;9.99;100.00;95314.81;5095444;28;20470;-58
2021/08/09 00:28:56;;;;;;;3.45;1.27;;;;;;;9.98;100.00;95320.38;5095472;28;20038;-58
2021/08/09 00:31:25;;;;;;;2.38;1.00;;;;;;;9.95;100.00;95311.00;5113494;28;20390;-57
2021/08/09 00:33:50;;;;;;;2.05;1.30;;;;;;;9.90;100.00;95312.84;5095486;28;20094;-56
2021/08/09 00:36:15;;;;;;;3.20;1.42;;;;;;;9.82;100.00;95309.56;5113549;28;20030;-61
2021/08/09 00:38:43;;;;;;;2.83;1.40;;;;;;;9.75;100.00;95308.16;5095353;28;20023;-53
2021/08/09 00:41:11;;;;;;;3.67;1.33;;;;;;;9.77;100.00;95308.75;5095009;28;20023;-58
2021/08/09 00:43:39;;;;;;;3.63;1.27;;;;;;;9.74;100.00;95307.34;5113454;28;20033;-54
2021/08/09 00:46:06;;;;;;;2.88;1.67;;;;;;;9.73;100.00;95312.97;5113376;28;20031;-56
2021/08/09 00:48:34;;;;;;;1.40;1.20;;;;;;;9.70;100.00;95316.16;5113379;28;20059;-59
2021/08/09 00:51:01;;;;;;;2.92;1.33;;;;;;;9.74;100.00;95311.91;5113230;28;20043;-55
2021/08/09 00:53:28;;;;;;;2.92;1.25;;;;;;;9.72;100.00;95316.69;5113194;28;20525;-55
2021/08/09 00:55:54;;;;;;;1.65;1.40;;;;;;;9.73;100.00;95312.97;5095136;28;20035;-57
2021/08/09 00:58:21;;;;;;;3.67;1.58;;;;;;;9.71;100.00;95313.22;5113089;28;20073;-58
2021/08/09 01:00:47;;;;;;;1.80;1.30;;;;;;;9.70;100.00;95308.94;5094802;28;20031;-57
2021/08/09 01:03:16;;;;;;;7.38;1.88;;;;;;;9.69;100.00;95306.50;5092633;28;20061;-55
2021/08/09 01:05:41;;;;;;;5.07;1.38;;;;;;;9.66;100.00;95302.50;5095007;28;20103;-59
2021/08/09 01:08:40;;;;;;;6.00;1.73;;;;;;;9.64;100.00;95296.56;5072401;28;20523;-58
2021/08/09 01:11:35;;;;;;;3.20;1.38;;;;;;;9.69;100.00;95291.28;5054289;28;20024;-58
2021/08/09 01:14:19;;;;;;;4.43;1.60;;;;;;;9.73;100.00;95287.03;5075731;28;20440;-58
2021/08/09 01:16:45;;;;;;;5.05;1.67;;;;;;;9.71;100.00;95286.47;5094463;28;20028;-61
2021/08/09 01:19:29;;;;;;;3.30;1.40;;;;;;;9.68;100.00;95273.63;5113013;28;20055;-55
2021/08/09 01:22:25;;;;;;;1.88;1.17;;;;;;;9.66;100.00;95272.22;5112729;28;20043;-57
2021/08/09 01:24:59;;;;;;;3.72;1.33;;;;;;;9.59;100.00;95261.75;5094479;28;20047;-58
2021/08/09 01:27:30;;;;;;;2.15;1.13;;;;;;;9.54;100.00;95265.19;5095011;28;20032;-54
2021/08/09 01:30:04;;;;;;;1.95;1.20;;;;;;;9.52;100.00;95267.31;5112741;28;20062;-54
2021/08/09 01:32:31;;;;;;;2.65;1.48;;;;;;;9.53;100.00;95260.88;5112699;28;20030;-55
2021/08/09 01:35:02;;;;;;;2.75;1.23;;;;;;;9.52;100.00;95255.81;5098305;28;20386;-58
2021/08/09 01:37:31;;;;;;;2.83;1.30;;;;;;;9.49;100.00;95265.16;5116922;28;20023;-59
2021/08/09 01:39:57;;;;;;;5.30;1.30;;;;;;;9.45;100.00;95250.69;5116793;28;20033;-59
2021/08/09 01:42:25;;;;;;;1.70;1.23;;;;;;;9.44;100.00;95246.41;5116886;28;20090;-58
2021/08/09 01:44:50;;;;;;;2.42;1.55;;;;;;;9.42;100.00;95245.81;5116855;28;20620;-56
2021/08/09 01:47:22;;;;;;;4.82;1.63;;;;;;;9.42;100.00;95237.00;5116594;28;20122;-57
2021/08/09 01:49:48;;;;;;;5.28;1.30;;;;;;;9.38;100.00;95235.91;5116428;28;20019;-58
2021/08/09 01:52:17;;;;;;;2.90;1.40;;;;;;;9.37;100.00;95234.28;5098241;28;20034;-54
2021/08/09 01:54:46;;;;;;;8.02;1.23;;;;;;;9.35;100.00;95231.06;5116790;28;20107;-58
2021/08/09 01:57:12;;;;;;;3.00;1.40;;;;;;;9.34;100.00;95234.81;5116673;28;20431;-58
2021/08/09 01:59:37;;;;;;;4.57;1.45;;;;;;;9.32;100.00;95231.56;5116561;28;20020;-57
2021/08/09 02:02:02;;;;;;;5.20;1.48;;;;;;;9.32;100.00;95234.22;5098252;28;20073;-55
2021/08/09 02:04:28;;;;;;;4.32;1.30;;;;;;;9.29;100.00;95225.66;5114227;28;20019;-58
2021/08/09 02:06:59;;;;;;;2.70;1.50;;;;;;;9.28;100.00;95228.59;5060527;28;20024;-61
2021/08/09 02:09:25;;;;;;;1.45;0.95;;;;;;;9.26;100.00;95231.50;5075805;28;20367;-58
2021/08/09 02:12:05;;;;;;;2.50;1.10;;;;;;;9.25;100.00;95231.78;5057621;28;20066;-58
2021/08/09 02:14:34;;;;;;;2.53;1.30;;;;;;;9.25;100.00;95221.06;5075514;28;20059;-58
2021/08/09 02:17:08;;;;;;;2.45;1.35;;;;;;;9.25;100.00;95213.06;5057584;28;20497;-59
2021/08/09 02:20:00;;;;;;;3.85;1.80;;;;;;;9.22;100.00;95209.00;5095845;28;20032;-58
2021/08/09 02:22:47;;;;;;;3.00;1.35;;;;;;;9.22;100.00;95206.34;5116329;28;20259;-57
2021/08/09 02:25:15;;;;;;;2.92;1.30;;;;;;;9.22;100.00;95202.84;5097569;28;20454;-61
2021/08/09 02:27:47;;;;;;;2.38;1.40;;;;;;;9.22;100.00;95206.34;5080874;28;20057;-57
2021/08/09 02:30:16;;;;;;;6.80;1.35;;;;;;;9.20;100.00;95205.78;5116068;28;20110;-60
2021/08/09 02:32:42;;;;;;;1.60;1.25;;;;;;;9.14;100.00;95193.44;5097659;28;20016;-56
2021/08/09 02:35:18;;;;;;;2.13;1.40;;;;;;;9.12;100.00;95200.13;5116066;28;20036;-60
2021/08/09 02:37:44;;;;;;;4.95;1.50;;;;;;;9.14;100.00;95192.66;5097519;28;20034;-55
2021/08/09 02:40:12;;;;;;;2.65;1.42;;;;;;;9.12;100.00;95192.09;5097503;28;20028;-56
2021/08/09 02:42:41;;;;;;;2.08;1.50;;;;;;;9.11;100.00;95188.59;5115760;28;20059;-58
2021/08/09 02:45:13;;;;;;;3.97;1.55;;;;;;;9.12;100.00;95184.09;5115540;28;20019;-52
2021/08/09 02:47:40;;;;;;;3.53;1.60;;;;;;;9.12;100.00;95184.88;5115665;28;20015;-57
2021/08/09 02:50:12;;;;;;;2.72;1.30;;;;;;;9.13;100.00;95186.50;5080597;28;20023;-57
2021/08/09 02:52:45;;;;;;;3.25;1.40;;;;;;;9.12;100.00;95179.53;5115490;28;20474;-55
2021/08/09 02:55:17;;;;;;;2.60;1.30;;;;;;;9.17;100.00;95186.78;5094946;28;20047;-55
2021/08/09 02:57:42;;;;;;;4.55;1.30;;;;;;;9.17;100.00;95187.59;5097633;28;20068;-56
2021/08/09 03:00:14;;;;;;;3.58;1.40;;;;;;;9.16;100.00;95185.19;5096990;28;20023;-57
2021/08/09 03:02:44;;;;;;;8.30;1.60;;;;;;;9.12;100.00;95195.56;5105286;28;20036;-55
2021/08/09 03:05:13;;;;;;;3.05;1.30;;;;;;;9.13;100.00;95186.50;5103666;28;20032;-52
2021/08/09 03:07:47;;;;;;;5.03;1.40;;;;;;;9.13;100.00;95186.50;5076636;28;20027;-55
2021/08/09 03:10:13;;;;;;;3.72;1.92;;;;;;;9.12;100.00;95181.41;5093464;28;20024;-57
2021/08/09 03:12:39;;;;;;;2.72;1.40;;;;;;;9.15;100.00;95179.03;5115079;28;20378;-58
2021/08/09 03:15:06;;;;;;;2.53;1.60;;;;;;;9.18;100.00;95186.53;5115211;28;20069;-58
2021/08/09 03:17:34;;;;;;;4.47;1.27;;;;;;;9.14;100.00;95188.09;5096736;28;20050;-56
2021/08/09 03:19:59;;;;;;;1.98;1.60;;;;;;;9.07;100.00;95179.47;5114806;28;20127;-55
2021/08/09 03:22:24;;;;;;;1.52;1.40;;;;;;;9.09;100.00;95169.34;5115091;28;20055;-57
2021/08/09 03:24:50;;;;;;;2.78;1.30;;;;;;;9.08;100.00;95172.25;5114954;28;20016;-58
2021/08/09 03:27:15;;;;;;;2.60;1.40;;;;;;;9.07;100.00;95179.47;5096640;28;20027;-58
2021/08/09 03:29:49;;;;;;;3.10;1.75;;;;;;;9.06;100.00;95183.22;5096564;28;20023;-58
2021/08/09 03:32:14;;;;;;;3.03;1.30;;;;;;;9.01;100.00;95175.16;5096432;28;20030;-55
2021/08/09 03:34:39;;;;;;;9.45;1.70;;;;;;;9.00;100.00;95176.19;5114697;28;20024;-51
2021/08/09 03:37:08;;;;;;;2.97;1.48;;;;;;;8.97;100.00;95179.38;5114799;28;20371;-57
2021/08/09 03:39:33;;;;;;;3.58;1.40;;;;;;;9.00;100.00;95173.53;5114681;28;20054;-59
2021/08/09 03:41:59;;;;;;;5.47;1.40;;;;;;;8.99;100.00;95172.72;5114572;28;20043;-61
2021/08/09 03:44:27;;;;;;;1.80;1.33;;;;;;;8.98;100.00;95173.78;5114469;28;20102;-58
2021/08/09 03:46:55;;;;;;;3.53;1.55;;;;;;;8.98;100.00;95168.44;5096258;28;20073;-59
2021/08/09 03:49:20;;;;;;;4.55;1.67;;;;;;;9.00;100.00;95160.16;5114469;28;20015;-59
2021/08/09 03:51:46;;;;;;;3.05;1.50;;;;;;;8.98;100.00;95163.09;5096015;28;20030;-57
2021/08/09 03:54:14;;;;;;;1.70;1.55;;;;;;;8.95;100.00;95155.59;5096514;28;20024;-60
2021/08/09 03:56:46;;;;;;;1.67;1.58;;;;;;;8.93;100.00;95157.72;5095217;28;20115;-61
2021/08/09 03:59:14;;;;;;;6.13;2.00;;;;;;;8.92;100.00;95157.97;5114207;28;20501;-60
2021/08/09 04:01:40;;;;;;;4.22;1.63;;;;;;;8.89;100.00;95153.91;5075788;28;20077;-58
2021/08/09 04:04:07;;;;;;;2.35;1.73;;;;;;;8.90;100.00;95149.38;5075893;28;20508;-58
2021/08/09 04:06:35;;;;;;;2.20;1.58;;;;;;;8.88;100.00;95154.97;5091491;28;20107;-58
2021/08/09 04:09:01;;;;;;;3.33;1.58;;;;;;;8.87;100.00;95157.91;5092604;28;20067;-59
2021/08/09 04:11:26;;;;;;;6.28;1.70;;;;;;;8.86;100.00;95154.44;5073928;28;20474;-58
2021/08/09 04:13:52;;;;;;;8.13;1.60;;;;;;;8.85;100.00;95152.81;5092606;28;20040;-59
2021/08/09 04:16:19;;;;;;;2.50;1.40;;;;;;;8.83;100.00;95154.94;5092637;28;20020;-59
2021/08/09 04:18:45;;;;;;;3.25;1.50;;;;;;;8.82;100.00;95153.31;5067712;28;20028;-60
2021/08/09 04:21:10;;;;;;;3.30;2.05;;;;;;;8.82;100.00;95152.53;5082210;22;20055;-62
2021/08/09 04:23:38;;;;;;;5.75;1.70;;;;;;;8.80;100.00;95136.75;5053633;28;20710;-62
2021/08/09 04:26:06;;;;;;;4.00;1.38;;;;;;;8.82;100.00;95139.16;5054688;28;20086;-63
2021/08/09 04:28:31;;;;;;;3.10;1.85;;;;;;;8.82;100.00;95128.50;5073026;28;20099;-61
2021/08/09 04:31:00;;;;;;;2.85;1.30;;;;;;;8.82;100.00;95126.63;5071730;28;20100;-61
2021/08/09 04:33:30;;;;;;;3.22;1.55;;;;;;;8.85;100.00;95133.31;5052786;28;20083;-61
2021/08/09 04:35:59;;;;;;;5.72;1.50;;;;;;;8.88;100.00;95127.47;5034947;28;20016;-63
2021/08/09 04:38:27;;;;;;;2.05;1.55;;;;;;;8.90;100.00;95123.50;5052796;28;20028;-63
2021/08/09 04:40:56;;;;;;;5.18;1.50;;;;;;;8.88;100.00;95122.91;5052700;28;20079;-62
2021/08/09 04:43:21;;;;;;;6.28;1.90;;;;;;;8.86;100.00;95127.72;5052766;28;20021;-63
2021/08/09 04:45:47;;;;;;;7.15;1.75;;;;;;;8.83;100.00;95122.88;5052469;28;20481;-57
2021/08/09 04:48:21;;;;;;;3.55;1.90;;;;;;;8.84;100.00;95134.38;5052542;28;20025;-58
2021/08/09 04:50:47;;;;;;;5.60;1.67;;;;;;;8.83;100.00;95109.53;5032674;28;20033;-57
2021/08/09 04:53:15;;;;;;;4.32;1.60;;;;;;;8.84;100.00;95113.00;5052144;28;20036;-59
2021/08/09 04:55:44;;;;;;;3.22;1.95;;;;;;;8.86;100.00;95105.53;5052442;28;20040;-58
2021/08/09 04:58:15;;;;;;;2.65;2.25;;;;;;;8.90;100.00;95094.13;5052516;28;20029;-59
2021/08/09 05:00:44;;;;;;;5.85;3.35;;;;;;;8.97;100.00;95091.22;5052299;28;20033;-58
2021/08/09 05:03:21;;;;;;;3.67;2.25;;;;;;;9.09;100.00;95085.69;5052409;28;20036;-60
2021/08/09 05:05:47;;;;;;;5.18;2.95;;;;;;;9.22;100.00;95080.72;5049001;28;20052;-58
2021/08/09 05:08:14;;;;;;;4.03;2.05;;;;;;;9.34;100.00;95082.44;5051074;28;20055;-60
2021/08/09 05:10:46;;;;;;;3.05;1.90;;;;;;;9.42;100.00;95085.41;5050976;28;20150;-61
2021/08/09 05:13:11;;;;;;;5.55;2.05;;;;;;;9.52;100.00;95087.34;5052363;28;20029;-62
2021/08/09 05:15:40;;;;;;;4.20;2.10;;;;;;;9.64;100.00;95079.13;5052297;28;20372;-60
2021/08/09 05:18:06;;;;;;;2.63;1.80;;;;;;;9.78;100.00;95067.72;5052281;28;20031;-59
2021/08/09 05:20:31;;;;;;;3.35;1.70;;;;;;;9.98;100.00;95058.16;5054179;28;20033;-60
2021/08/09 05:22:57;;;;;;;3.30;2.15;;;;;;;10.13;100.00;95059.03;5053357;28;20056;-58
2021/08/09 05:25:22;;;;;;;3.13;2.45;;;;;;;10.33;100.00;95053.00;5039414;28;20036;-58
2021/08/09 05:27:48;;;;;;;4.40;2.47;;;;;;;10.45;100.00;95050.88;5067094;28;20024;-57
2021/08/09 05:30:16;;;;;;;4.03;2.47;;;;;;;10.53;100.00;95046.03;5054975;28;20039;-57
2021/08/09 05:32:46;;;;;;;5.45;2.30;;;;;;;10.65;100.00;95052.78;5072202;28;20055;-60
2021/08/09 05:35:17;;;;;;;3.22;2.38;;;;;;;10.86;100.00;95061.66;5072143;28;20040;-62
2021/08/09 05:37:42;;;;;;;6.75;2.40;;;;;;;11.11;100.00;95060.06;5072250;28;20428;-59
2021/08/09 05:40:09;;;;;;;6.88;2.10;;;;;;;11.33;100.00;95047.16;5054191;28;20107;-62
2021/08/09 05:42:35;;;;;;;4.53;2.72;;;;;;;11.55;100.00;95036.94;5054067;28;20448;-62
2021/08/09 05:45:00;;;;;;;3.72;2.38;;;;;;;11.75;100.00;95033.41;5072132;28;20028;-61
2021/08/09 05:47:28;;;;;;;4.47;2.22;;;;;;;11.98;100.00;95026.63;5072117;28;20107;-56
2021/08/09 05:49:56;;;;;;;3.88;2.10;;;;;;;12.23;100.00;95028.41;5071964;28;20107;-62
2021/08/09 05:52:26;;;;;;;5.22;2.15;;;;;;;12.44;100.00;95023.72;5037361;28;20025;-60
2021/08/09 05:55:05;;;;;;;5.93;2.75;;;;;;;12.74;100.00;95025.44;5072094;28;20025;-57
2021/08/09 05:57:30;;;;;;;4.35;1.70;;;;;;;12.94;100.00;95021.78;5069882;28;20027;-56
2021/08/09 05:59:56;;;;;;;2.88;1.75;;;;;;;13.06;100.00;95025.72;5034074;28;20021;-56
2021/08/09 06:02:24;;;;;;;6.03;2.00;;;;;;;13.26;100.00;95022.09;5051615;28;20035;-62
2021/08/09 06:04:50;;;;;;;3.40;2.15;;;;;;;13.54;100.00;95009.69;5034055;28;20029;-62
2021/08/09 06:07:19;;;;;;;7.65;2.00;;;;;;;13.72;100.00;95004.69;5051853;28;20419;-61
2021/08/09 06:09:45;;;;;;;4.32;1.70;;;;;;;13.84;100.00;95013.16;5051848;28;20395;-62
2021/08/09 06:12:12;;;;;;;3.95;1.67;;;;;;;13.99;100.00;95010.28;5051648;28;20021;-63
2021/08/09 06:14:38;;;;;;;2.55;1.67;;;;;;;14.09;100.00;95003.97;5051754;28;20035;-62
2021/08/09 06:17:07;;;;;;;2.72;1.70;;;;;;;14.30;100.00;94999.91;5017567;28;20025;-61
2021/08/09 06:19:34;;;;;;;3.55;1.92;;;;;;;14.57;100.00;94993.13;5068433;28;20476;-63
2021/08/09 06:22:00;;;;;;;2.00;1.55;;;;;;;14.87;100.00;94987.28;5036782;28;20068;-61
2021/08/09 06:24:28;;;;;;;2.33;1.60;;;;;;;15.01;100.00;94960.34;5043757;28;20051;-61
2021/08/09 06:26:57;;;;;;;3.47;1.58;;;;;;;15.25;100.00;94928.63;5055405;28;20032;-63
2021/08/09 06:29:22;;;;;;;2.10;1.58;;;;;;;15.46;100.00;94903.97;5055134;28;20372;-63
2021/08/09 06:31:48;;;;;;;4.00;1.60;;;;;;;15.68;100.00;94868.97;5055038;28;20087;-60
2021/08/09 06:34:16;;;;;;;3.35;1.48;;;;;;;15.85;100.00;94839.47;5055325;28;20204;-62
2021/08/09 06:36:44;;;;;;;4.03;1.60;;;;;;;16.10;100.00;94805.66;5055167;28;20031;-62
2021/08/09 06:39:15;;;;;;;3.35;1.63;;;;;;;16.35;100.00;94779.91;5055274;28;20024;-58
2021/08/09 06:41:41;;;;;;;2.00;1.40;;;;;;;16.66;100.00;94776.44;5054827;28;20031;-59
2021/08/09 06:44:09;;;;;;;5.75;1.60;;;;;;;17.00;100.00;94763.09;5055120;28;20021;-59
2021/08/09 06:46:39;;;;;;;2.92;1.60;;;;;;;17.20;100.00;94744.69;5037056;28;20025;-59
2021/08/09 06:49:13;;;;;;;5.05;1.63;;;;;;;17.42;100.00;94733.75;5055052;28;20024;-60
2021/08/09 06:51:38;;;;;;;3.47;1.52;;;;;;;17.67;100.00;94735.69;5054899;28;20432;-59
2021/08/09 06:54:04;;;;;;;3.75;1.50;;;;;;;17.94;100.00;94742.75;5020497;28;20116;-57
2021/08/09 06:56:37;;;;;;;2.17;1.42;;;;;;;18.27;100.00;94749.59;5054806;28;20037;-64
2021/08/09 06:59:03;;;;;;;2.53;1.30;;;;;;;18.50;100.00;94761.81;5054866;28;20148;-62
2021/08/09 07:01:28;;;;;;;1.80;1.35;;;;;;;18.67;100.00;94774.56;5036827;28;20024;-63
2021/08/09 07:03:54;;;;;;;3.42;1.23;;;;;;;18.73;100.00;94790.34;5036912;28;20043;-62
2021/08/09 07:06:21;;;;;;;2.50;1.10;;;;;;;18.85;100.00;94805.97;5054638;28;20032;-64
2021/08/09 07:08:48;;;;;;;4.82;1.50;;;;;;;18.89;100.00;94820.50;5054586;28;20025;-62
2021/08/09 07:11:13;;;;;;;7.68;1.75;;;;;;;19.03;100.00;94839.28;5054452;28;20024;-61
2021/08/09 07:13:39;;;;;;;4.88;1.50;;;;;;;19.06;100.00;94855.72;5054518;28;20035;-63
2021/08/09 07:16:04;;;;;;;3.15;1.38;;;;;;;19.40;100.00;94879.25;5054582;28;20099;-61
2021/08/09 07:18:32;;;;;;;4.82;1.27;;;;;;;19.60;100.00;94887.84;5054357;28;20029;-60
2021/08/09 07:21:00;;;;;;;2.28;1.10;;;;;;;19.82;100.00;94914.75;5060194;28;20123;-60
2021/08/09 07:23:25;;;;;;;3.80;1.40;;;;;;;20.01;100.00;94930.66;5070676;28;20021;-60
2021/08/09 07:25:53;;;;;;;7.78;2.30;;;;;;;20.22;100.00;94947.81;5064740;28;20368;-58
2021/08/09 07:28:27;;;;;;;2.78;1.55;;;;;;;20.28;100.00;94954.63;5074271;28;20052;-60
2021/08/09 07:30:55;;;;;;;2.58;1.30;;;;;;;20.33;100.00;94999.91;5065305;28;20543;-62
2021/08/09 07:33:20;;;;;;;5.00;1.42;;;;;;;20.26;100.00;95019.44;5056300;28;20426;-59
2021/08/09 07:35:46;;;;;;;3.08;1.45;;;;;;;20.32;100.00;95002.94;5056215;28;20073;-60
2021/08/09 07:38:11;;;;;;;4.72;1.42;;;;;;;20.38;100.00;95012.50;5074137;28;20031;-59
2021/08/09 07:40:49;;;;;;;3.30;1.63;;;;;;;20.42;100.00;94997.97;5074033;28;20029;-58
2021/08/09 07:43:14;;;;;;;3.03;1.60;;;;;;;20.43;100.00;94996.84;5073971;28;20491;-59
2021/08/09 07:45:42;;;;;;;4.68;1.48;;;;;;;20.65;100.00;95003.09;5073513;28;20028;-60
2021/08/09 07:48:12;;;;;;;2.00;1.40;;;;;;;20.59;100.00;95012.56;5073822;28;20028;-57
2021/08/09 07:50:39;;;;;;;2.20;1.40;;;;;;;20.23;100.00;95011.16;5056117;28;20041;-62
2021/08/09 07:53:09;;;;;;;3.88;1.60;;;;;;;20.23;100.00;94994.84;5073826;28;20392;-63
2021/08/09 07:55:44;;;;;;;3.30;1.30;;;;;;;20.41;100.00;94984.66;5073359;28;20111;-63
2021/08/09 07:58:16;;;;;;;1.60;1.15;;;;;;;20.69;100.00;94991.22;5073659;28;20020;-63
2021/08/09 08:00:44;;;;;;;4.97;1.63;;;;;;;20.88;100.00;94989.97;5073315;28;20105;-63
2021/08/09 08:03:17;;;;;;;4.30;1.65;;;;;;;21.07;100.00;95001.19;5055487;28;20020;-63
2021/08/09 08:05:45;;;;;;;3.67;1.40;;;;;;;21.00;100.00;95041.75;5073465;28;20029;-63
2021/08/09 08:08:24;;;;;;;5.85;1.58;;;;;;;21.05;100.00;95008.88;5073391;28;20044;-63
2021/08/09 08:10:49;;;;;;;5.10;1.52;;;;;;;21.10;100.00;95028.53;5038722;28;20028;-63
2021/08/09 08:13:18;;;;;;;3.70;1.30;;;;;;;21.23;100.00;95077.63;5055192;28;20028;-63
2021/08/09 08:15:48;;;;;;;2.33;1.08;;;;;;;21.09;100.00;95054.19;5055251;28;20471;-62
2021/08/09 08:18:14;;;;;;;4.25;1.50;;;;;;;21.22;100.00;95073.31;5073168;28;20035;-61
2021/08/09 08:20:39;;;;;;;2.33;1.20;;;;;;;21.46;100.00;95100.72;5072927;28;20040;-61
2021/08/09 08:23:05;;;;;;;2.78;1.20;;;;;;;21.73;100.00;95090.41;5072207;28;20376;-60
2021/08/09 08:25:36;;;;;;;3.47;1.30;;;;;;;21.89;100.00;95102.25;5042166;28;20043;-59
2021/08/09 08:28:08;;;;;;;2.03;1.40;;;;;;;22.05;100.00;95148.81;5072981;28;20539;-62
2021/08/09 08:30:33;;;;;;;3.28;1.48;;;;;;;22.18;100.00;95189.44;5064866;28;20074;-62
2021/08/09 08:33:19;;;;;;;1.38;1.10;;;;;;;22.22;100.00;95181.38;5072865;28;20024;-61
2021/08/09 08:35:44;;;;;;;4.03;1.35;;;;;;;22.33;100.00;95200.84;5040656;28;20450;-62
2021/08/09 08:38:12;;;;;;;3.05;1.20;;;;;;;22.38;100.00;95228.75;5072688;28;20070;-63
2021/08/09 08:40:51;;;;;;;2.33;1.20;;;;;;;22.78;100.00;95201.63;5072868;28;20438;-63
2021/08/09 08:43:21;;;;;;;4.80;1.15;;;;;;;22.79;100.00;95203.25;5054621;28;20088;-62
2021/08/09 08:45:56;;;;;;;4.40;1.45;;;;;;;22.89;100.00;95253.91;5054642;28;20020;-63
2021/08/09 08:48:23;;;;;;;3.10;1.50;;;;;;;23.21;100.00;95222.19;5054946;28;20020;-61
2021/08/09 08:50:50;;;;;;;3.38;1.38;;;;;;;23.02;100.00;95274.66;5054745;28;20479;-62
2021/08/09 08:53:16;;;;;;;1.83;1.10;;;;;;;22.75;100.00;95346.25;5072576;28;20029;-63
2021/08/09 08:55:41;;;;;;;2.20;1.23;;;;;;;22.77;100.00;95319.41;5072719;28;20073;-62
2021/08/09 08:58:06;;;;;;;3.55;1.35;;;;;;;23.10;100.00;95289.34;5054063;28;20479;-62
2021/08/09 09:00:51;;;;;;;2.55;1.27;;;;;;;23.39;100.00;95327.41;5072283;28;20028;-62
2021/08/09 09:03:19;;;;;;;3.60;1.05;;;;;;;23.69;100.00;95322.56;5032332;28;20017;-62
2021/08/09 09:06:04;;;;;;;2.72;1.40;;;;;;;23.71;100.00;95364.03;5019888;28;20025;-61
2021/08/09 09:08:44;;;;;;;4.78;1.50;;;;;;;23.87;100.00;95325.84;5052677;28;20033;-60
2021/08/09 09:11:39;;;;;;;2.15;1.48;;;;;;;23.88;100.00;95393.13;5040784;28;20106;-61
2021/08/09 09:14:07;;;;;;;2.60;1.40;;;;;;;23.92;100.00;95420.59;5052021;28;20045;-58
2021/08/09 09:16:50;;;;;;;3.40;1.50;;;;;;;23.56;100.00;95386.56;5039175;28;20028;-60
2021/08/09 09:19:35;;;;;;;;;;;;;;;23.51;100.00;95334.81;5052587;28;20037;-61
2021/08/09 09:22:21;;;;;;;4.60;1.70;;;;;;;23.82;100.00;95353.44;5051138;28;20004;-62
2021/08/09 09:24:49;;;;;;;2.65;1.38;;;;;;;23.88;100.00;95324.72;5034545;28;20035;-61
2021/08/09 09:27:28;;;;;;;2.22;1.40;;;;;;;23.92;100.00;95325.63;5052099;28;20035;-62
2021/08/09 09:29:59;;;;;;;2.95;1.40;;;;;;;24.29;100.00;95389.31;5042506;28;20028;-63
2021/08/09 09:32:33;;;;;;;1.97;1.50;;;;;;;24.51;100.00;95359.84;5051831;28;20033;-62
2021/08/09 09:34:58;;;;;;;4.05;1.23;;;;;;;24.40;100.00;95378.69;5052443;28;20622;-63
2021/08/09 09:37:30;;;;;;;2.90;1.52;;;;;;;24.65;100.00;95370.44;5054280;28;20017;-61
2021/08/09 09:40:12;;;;;;;2.47;1.27;;;;;;;24.79;100.00;95412.72;5027907;28;20424;-63
2021/08/09 09:42:41;;;;;;;3.10;1.30;;;;;;;24.53;100.00;95478.06;5050310;28;20715;-61
2021/08/09 09:45:29;;;;;;;2.53;1.50;;;;;;;24.68;100.00;95444.50;5048644;28;20560;-60
2021/08/09 09:48:04;;;;;;;3.75;1.70;;;;;;;24.73;100.00;95455.19;5031905;28;20040;-62
2021/08/09 09:50:30;;;;;;;4.40;1.48;;;;;;;24.86;100.00;95508.84;5050838;28;20056;-63
2021/08/09 09:53:13;;;;;;;2.42;1.40;;;;;;;24.90;100.00;95528.13;5051714;28;20021;-62
2021/08/09 09:55:43;;;;;;;;;;;;;;;24.98;100.00;95466.13;5068008;28;20032;-62
2021/08/09 09:58:17;;;;;;;1.83;1.33;;;;;;;25.24;100.00;95595.34;5055657;28;19909;-60
2021/08/09 10:00:46;;;;;;;2.03;1.30;;;;;;;25.46;100.00;95642.59;5056498;28;20376;-59
2021/08/09 10:03:12;;;;;;;2.83;1.40;;;;;;;25.13;100.00;95629.88;5049644;28;20395;-61
2021/08/09 10:05:42;;;;;;;3.42;1.40;;;;;;;25.46;100.00;95635.19;5057766;28;20027;-60
2021/08/09 10:08:16;;;;;;;2.30;1.30;;;;;;;25.78;100.00;95702.00;5038961;28;20031;-59
2021/08/09 10:10:50;;;;;;;2.72;1.48;;;;;;;26.08;99.65;95729.94;5037293;28;20028;-61
2021/08/09 10:13:21;;;;;;;3.15;1.33;;;;;;;26.05;100.00;95721.56;5051499;28;20021;-60
2021/08/09 10:15:53;;;;;;;4.68;1.40;;;;;;;26.32;94.84;95781.22;5053002;28;20025;-59
2021/08/09 10:18:30;;;;;;;2.65;1.30;;;;;;;26.47;89.57;95813.47;5053757;28;20021;-59
2021/08/09 10:20:57;;;;;;;1.48;1.20;;;;;;;26.43;88.36;95818.06;5069888;28;20052;-64
2021/08/09 10:23:39;;;;;;;1.38;1.20;;;;;;;26.30;94.47;95787.06;5032080;28;20020;-64
2021/08/09 10:26:07;;;;;;;1.83;1.52;;;;;;;26.06;87.08;95830.28;5046810;28;20025;-63
2021/08/09 10:28:51;;;;;;;1.45;1.25;;;;;;;25.69;88.95;95828.34;5051113;28;20052;-62
2021/08/09 10:31:25;;;;;;;3.60;1.30;;;;;;;25.41;87.60;95838.38;5051361;28;20016;-63
2021/08/09 10:33:54;;;;;;;2.78;1.20;;;;;;;25.24;85.20;95852.28;5057413;28;20025;-63
2021/08/09 10:36:21;;;;;;;1.83;1.30;;;;;;;24.93;84.42;95863.69;5057781;28;20028;-60
2021/08/09 10:38:47;;;;;;;2.47;1.20;;;;;;;25.11;90.12;95832.25;5033060;28;20074;-63
2021/08/09 10:41:15;;;;;;;2.22;1.30;;;;;;;25.10;90.51;95831.47;5034155;28;20041;-63
2021/08/09 10:44:06;;;;;;;2.00;1.30;;;;;;;25.11;92.17;95833.06;5047713;28;20047;-63
2021/08/09 10:46:44;;;;;;;2.53;1.40;;;;;;;25.17;92.23;95830.88;5052928;28;20025;-63
2021/08/09 10:49:39;;;;;;;3.00;1.50;;;;;;;25.28;95.03;95815.59;5053664;28;20066;-64
2021/08/09 10:52:17;;;;;;;3.10;1.30;;;;;;;25.49;94.78;95825.66;5045170;28;20037;-63
2021/08/09 10:54:45;;;;;;;2.65;1.50;;;;;;;25.57;90.67;95831.06;5025245;28;20400;-63
2021/08/09 10:57:42;;;;;;;2.45;1.77;;;;;;;25.34;93.84;95825.22;5069645;28;20029;-64
2021/08/09 11:00:13;;;;;;;2.95;1.40;;;;;;;25.30;94.57;95831.72;5045650;28;20110;-64
2021/08/09 11:03:07;;;;;;;2.75;1.30;;;;;;;25.34;93.90;95836.19;5074566;28;20566;-65
2021/08/09 11:05:33;;;;;;;2.63;1.45;;;;;;;25.61;92.98;95831.97;5074477;28;20047;-64
2021/08/09 11:08:20;;;;;;;6.43;1.45;;;;;;;26.04;94.04;95829.78;5056238;28;20021;-65
2021/08/09 11:10:54;;;;;;;3.42;1.50;;;;;;;26.54;88.76;95849.38;5074333;28;20506;-62
2021/08/09 11:13:19;;;;;;;2.47;1.30;;;;;;;26.84;85.11;95858.09;5073545;28;20383;-63
2021/08/09 11:16:01;;;;;;;3.67;1.40;;;;;;;27.12;84.74;95860.84;5072897;28;20218;-64
2021/08/09 11:18:28;;;;;;;2.80;1.63;;;;;;;26.85;85.09;95864.41;5074412;28;20024;-63
2021/08/09 11:21:04;;;;;;;2.13;1.50;;;;;;;26.91;84.13;95857.47;5074071;28;20052;-64
2021/08/09 11:23:40;;;;;;;3.78;1.85;;;;;;;27.18;84.50;95855.91;5074193;28;20028;-63
2021/08/09 11:26:06;;;;;;;3.65;1.83;;;;;;;27.18;81.90;95857.84;5043814;28;20078;-63
2021/08/09 11:28:35;;;;;;;2.40;1.90;;;;;;;27.31;78.27;95871.16;5073133;28;20034;-64
2021/08/09 11:31:04;;;;;;;2.83;1.60;;;;;;;27.35;81.27;95865.75;5053980;28;20480;-63
2021/08/09 11:33:37;;;;;;;5.32;1.70;;;;;;;27.51;85.06;95849.28;5073921;28;20038;-63
2021/08/09 11:36:08;;;;;;;3.08;1.80;;;;;;;27.41;82.00;95859.66;5074096;28;20027;-64
2021/08/09 11:38:47;;;;;;;2.25;1.65;;;;;;;27.43;81.68;95859.28;5074128;28;20368;-64
2021/08/09 11:41:18;;;;;;;3.40;1.60;;;;;;;27.31;84.77;95856.63;5073828;28;20060;-64
2021/08/09 11:43:45;;;;;;;6.10;2.10;;;;;;;27.11;83.60;95862.00;5073883;28;20422;-64